createdAt,value
2022-11-12T00:01:17.392Z,102614.56
2022-11-12T00:03:19.210Z,102619.00
2022-11-12T00:05:20.953Z,102601.31
2022-11-12T00:07:22.486Z,102603.81
2022-11-12T00:09:23.873Z,102615.38
2022-11-12T00:11:25.422Z,102610.09
2022-11-12T00:13:28.398Z,102604.81
2022-11-12T00:15:30.014Z,102603.03
2022-11-12T00:17:31.559Z,102606.47
2022-11-12T00:19:32.885Z,102610.88
2022-11-12T00:21:34.467Z,102607.31
2022-11-12T00:23:36.041Z,102609.22
2022-11-12T00:25:37.767Z,102604.06
2022-11-12T00:27:39.377Z,102611.97
2022-11-12T00:29:42.395Z,102609.28
2022-11-12T00:31:43.978Z,102607.50
2022-11-12T00:33:45.333Z,102611.88
2022-11-12T00:35:47.031Z,102608.34
2022-11-12T00:37:53.567Z,102604.00
2022-11-12T00:39:55.176Z,102598.59
2022-11-12T00:41:57.057Z,102602.09
2022-11-12T00:43:58.682Z,102600.38
2022-11-12T00:46:01.699Z,102610.88
2022-11-12T00:48:03.520Z,102603.81
2022-11-12T00:50:06.526Z,102608.25
2022-11-12T00:52:08.286Z,102606.56
2022-11-12T00:54:10.028Z,102601.38
2022-11-12T00:56:11.546Z,102613.72
2022-11-12T00:58:12.900Z,102601.34
2022-11-12T01:00:17.083Z,102609.22
2022-11-12T01:02:20.170Z,102596.97
2022-11-12T01:04:21.765Z,102606.72
2022-11-12T01:06:23.909Z,102598.81
2022-11-12T01:08:25.980Z,102604.09
2022-11-12T01:10:27.903Z,102597.94
2022-11-12T01:12:30.879Z,102604.19
2022-11-12T01:14:32.448Z,102599.75
2022-11-12T01:16:35.531Z,102604.22
2022-11-12T01:18:38.616Z,102593.63
2022-11-12T01:20:40.290Z,102606.88
2022-11-12T01:22:41.873Z,102601.59
2022-11-12T01:24:43.400Z,102593.69
2022-11-12T01:26:44.738Z,102599.88
2022-11-12T01:28:46.429Z,102600.72
2022-11-12T01:30:47.999Z,102598.91
2022-11-12T01:32:49.536Z,102595.44
2022-11-12T01:34:52.241Z,102597.25
2022-11-12T01:36:54.177Z,102604.31
2022-11-12T01:38:56.080Z,102595.63
2022-11-12T01:40:57.659Z,102608.91
2022-11-12T01:42:59.028Z,102606.25
2022-11-12T01:45:00.610Z,102613.41
2022-11-12T01:47:06.685Z,102615.16
2022-11-12T01:49:14.028Z,102611.69
2022-11-12T01:51:18.432Z,102608.16
2022-11-12T01:53:21.559Z,102614.34
2022-11-12T01:55:28.282Z,102619.59
2022-11-12T01:57:35.277Z,102602.84
2022-11-12T01:59:43.788Z,102592.38
2022-11-12T02:01:45.428Z,102616.94
2022-11-12T02:03:47.047Z,102622.25
2022-11-12T02:05:57.443Z,102598.44
2022-11-12T02:08:01.873Z,102606.31
2022-11-12T02:10:05.551Z,102617.75
2022-11-12T02:12:07.540Z,102616.94
2022-11-12T02:14:09.177Z,102613.47
2022-11-12T02:16:11.037Z,102615.13
2022-11-12T02:18:12.627Z,102618.66
2022-11-12T02:20:14.671Z,102619.63
2022-11-12T02:22:17.695Z,102623.16
2022-11-12T02:24:32.622Z,102618.72
2022-11-12T02:26:36.965Z,102622.28
2022-11-12T02:28:38.601Z,102629.41
2022-11-12T02:30:44.835Z,102626.72
2022-11-12T02:32:46.412Z,102627.63
2022-11-12T02:34:47.778Z,102629.44
2022-11-12T02:36:49.467Z,102634.81
2022-11-12T02:38:52.514Z,102635.69
2022-11-12T02:40:54.115Z,102639.09
2022-11-12T02:42:55.738Z,102642.66
2022-11-12T02:44:57.288Z,102644.47
2022-11-12T02:46:58.640Z,102648.91
2022-11-12T02:49:00.202Z,102655.13
2022-11-12T02:51:01.785Z,102661.31
2022-11-12T02:53:03.630Z,102660.41
2022-11-12T02:55:08.776Z,102654.22
2022-11-12T02:57:10.692Z,102657.81
2022-11-12T02:59:12.274Z,102666.56
2022-11-12T03:01:13.907Z,102669.25
2022-11-12T03:03:15.533Z,102670.13
2022-11-12T03:05:17.298Z,102665.72
2022-11-12T03:07:18.894Z,102667.56
2022-11-12T03:09:20.459Z,102673.63
2022-11-12T03:11:23.186Z,102675.47
2022-11-12T03:13:24.844Z,102672.84
2022-11-12T03:15:27.577Z,102677.25
2022-11-12T03:17:29.164Z,102672.00
2022-11-12T03:19:30.871Z,102675.59
2022-11-12T03:21:32.419Z,102680.03
2022-11-12T03:23:33.752Z,102676.53
2022-11-12T03:25:36.117Z,102680.03
2022-11-12T03:27:39.091Z,102680.13
2022-11-12T03:29:40.702Z,102672.16
2022-11-12T03:31:42.415Z,102672.19
2022-11-12T03:33:44.100Z,102682.75
2022-11-12T03:35:45.672Z,102684.53
2022-11-12T03:37:47.143Z,102676.66
2022-11-12T03:39:48.711Z,102672.22
2022-11-12T03:41:50.074Z,102672.19
2022-11-12T03:43:53.033Z,102674.88
2022-11-12T03:45:54.918Z,102680.16
2022-11-12T03:47:58.025Z,102674.91
2022-11-12T03:49:59.636Z,102674.94
2022-11-12T03:52:01.211Z,102666.16
2022-11-12T03:54:02.602Z,102673.16
2022-11-12T03:56:04.693Z,102671.41
2022-11-12T03:58:06.410Z,102667.00
2022-11-12T04:00:11.634Z,102677.56
2022-11-12T04:02:13.240Z,102672.28
2022-11-12T04:04:14.800Z,102677.59
2022-11-12T04:06:16.158Z,102675.78
2022-11-12T04:08:19.752Z,102679.31
2022-11-12T04:10:21.288Z,102675.81
2022-11-12T04:12:22.640Z,102672.28
2022-11-12T04:14:24.226Z,102669.63
2022-11-12T04:16:26.956Z,102674.91
2022-11-12T04:18:28.703Z,102670.53
2022-11-12T04:20:30.479Z,102674.91
2022-11-12T04:22:32.027Z,102669.66
2022-11-12T04:24:34.053Z,102671.44
2022-11-12T04:26:35.725Z,102668.78
2022-11-12T04:28:37.280Z,102679.38
2022-11-12T04:30:38.635Z,102687.28
2022-11-12T04:32:48.628Z,102684.69
2022-11-12T04:34:50.221Z,102674.13
2022-11-12T04:36:51.845Z,102682.03
2022-11-12T04:38:53.235Z,102684.66
2022-11-12T04:40:54.796Z,102688.19
2022-11-12T04:42:56.183Z,102681.97
2022-11-12T04:44:57.862Z,102681.16
2022-11-12T04:46:59.441Z,102679.38
2022-11-12T04:49:02.156Z,102684.72
2022-11-12T04:51:05.747Z,102693.53
2022-11-12T04:53:07.305Z,102680.28
2022-11-12T04:55:09.191Z,102689.13
2022-11-12T04:57:10.764Z,102691.75
2022-11-12T04:59:12.144Z,102671.47
2022-11-12T05:01:13.741Z,102688.25
2022-11-12T05:03:16.140Z,102687.34
2022-11-12T05:05:19.076Z,102688.22
2022-11-12T05:07:20.656Z,102700.56
2022-11-12T05:09:24.272Z,102694.41
2022-11-12T05:11:25.812Z,102700.59
2022-11-12T05:13:27.175Z,102698.84
2022-11-12T05:15:28.740Z,102703.25
2022-11-12T05:17:30.157Z,102704.13
2022-11-12T05:19:31.753Z,102697.97
2022-11-12T05:21:37.965Z,102712.94
2022-11-12T05:23:42.213Z,102709.44
2022-11-12T05:25:43.540Z,102714.72
2022-11-12T05:27:45.121Z,102728.81
2022-11-12T05:29:46.625Z,102720.00
2022-11-12T05:31:48.184Z,102711.19
2022-11-12T05:33:49.639Z,102713.84
2022-11-12T05:35:51.201Z,102716.50
2022-11-12T05:37:53.937Z,102714.75
2022-11-12T05:39:55.522Z,102706.81
2022-11-12T05:42:13.936Z,102705.94
2022-11-12T05:44:15.968Z,102712.97
2022-11-12T05:46:17.459Z,102711.22
2022-11-12T05:48:24.010Z,102721.81
2022-11-12T05:50:28.228Z,102720.06
2022-11-12T05:52:36.728Z,102713.88
2022-11-12T05:54:39.694Z,102703.31
2022-11-12T05:56:41.376Z,102716.53
2022-11-12T05:58:43.044Z,102719.16
2022-11-12T06:00:44.623Z,102719.16
2022-11-12T06:02:46.038Z,102725.31
2022-11-12T06:04:47.645Z,102716.50
2022-11-12T06:06:49.078Z,102712.09
2022-11-12T06:08:50.725Z,102718.25
2022-11-12T06:10:54.825Z,102725.28
2022-11-12T06:12:56.432Z,102719.13
2022-11-12T06:14:58.000Z,102724.44
2022-11-12T06:16:59.404Z,102720.91
2022-11-12T06:19:00.958Z,102734.13
2022-11-12T06:21:03.164Z,102728.84
2022-11-12T06:23:04.832Z,102727.97
2022-11-12T06:25:06.907Z,102727.09
2022-11-12T06:27:10.030Z,102727.06
2022-11-12T06:29:11.856Z,102716.50
2022-11-12T06:31:14.201Z,102709.47
2022-11-12T06:33:15.768Z,102725.31
2022-11-12T06:35:18.295Z,102725.31
2022-11-12T06:37:20.029Z,102730.63
2022-11-12T06:39:21.660Z,102741.19
2022-11-12T06:41:23.248Z,102735.91
2022-11-12T06:43:28.945Z,102740.28
2022-11-12T06:45:30.606Z,102725.34
2022-11-12T06:47:32.413Z,102741.19
2022-11-12T06:49:33.998Z,102755.28
2022-11-12T06:51:35.331Z,102753.50
2022-11-12T06:53:36.969Z,102749.09
2022-11-12T06:55:38.551Z,102750.84
2022-11-12T06:57:39.935Z,102765.84
2022-11-12T06:59:42.910Z,102742.06
2022-11-12T07:01:44.652Z,102750.84
2022-11-12T07:03:46.250Z,102769.34
2022-11-12T07:05:47.892Z,102755.25
2022-11-12T07:07:49.690Z,102742.91
2022-11-12T07:09:51.659Z,102754.34
2022-11-12T07:11:53.234Z,102765.78
2022-11-12T07:13:54.737Z,102772.88
2022-11-12T07:15:58.863Z,102771.97
2022-11-12T07:18:00.683Z,102769.34
2022-11-12T07:20:04.120Z,102767.56
2022-11-12T07:22:05.934Z,102777.25
2022-11-12T07:24:08.462Z,102778.16
2022-11-12T07:26:14.144Z,102785.19
2022-11-12T07:28:15.855Z,102784.25
2022-11-12T07:30:17.751Z,102769.25
2022-11-12T07:32:20.881Z,102779.81
2022-11-12T07:34:22.619Z,102784.19
2022-11-12T07:36:27.406Z,102788.56
2022-11-12T07:38:32.211Z,102798.22
2022-11-12T07:40:33.933Z,102788.50
2022-11-12T07:42:35.939Z,102798.16
2022-11-12T07:44:37.624Z,102791.09
2022-11-12T07:46:39.377Z,102791.91
2022-11-12T07:48:44.034Z,102796.28
2022-11-12T07:50:45.747Z,102785.66
2022-11-12T07:52:47.351Z,102788.25
2022-11-12T07:54:49.519Z,102796.16
2022-11-12T07:56:51.224Z,102798.81
2022-11-12T07:58:53.004Z,102800.50
2022-11-12T08:00:54.723Z,102784.56
2022-11-12T08:02:59.739Z,102788.13
2022-11-12T08:05:08.584Z,102806.63
2022-11-12T08:07:18.530Z,102797.72
2022-11-12T08:09:20.154Z,102795.91
2022-11-12T08:11:21.529Z,102800.25
2022-11-12T08:13:23.659Z,102795.78
2022-11-12T08:15:25.643Z,102797.56
2022-11-12T08:17:27.394Z,102802.75
2022-11-12T08:19:28.954Z,102804.47
2022-11-12T08:21:31.675Z,102798.16
2022-11-12T08:23:33.346Z,102786.56
2022-11-12T08:25:40.610Z,102799.75
2022-11-12T08:27:42.187Z,102807.78
2022-11-12T08:29:43.777Z,102797.06
2022-11-12T08:31:48.401Z,102789.13
2022-11-12T08:33:50.457Z,102793.50
2022-11-12T08:35:58.124Z,102794.22
2022-11-12T08:38:08.347Z,102795.94
2022-11-12T08:40:11.378Z,102787.91
2022-11-12T08:42:13.117Z,102789.41
2022-11-12T08:44:14.686Z,102783.09
2022-11-12T08:46:21.791Z,102795.41
2022-11-12T08:48:23.401Z,102795.34
2022-11-12T08:50:25.194Z,102785.34
2022-11-12T08:52:26.801Z,102770.50
2022-11-12T08:54:29.744Z,102789.84
2022-11-12T08:56:31.320Z,102790.56
2022-11-12T08:58:32.916Z,102789.41
2022-11-12T09:00:37.183Z,102799.00
2022-11-12T09:02:39.330Z,102791.78
2022-11-12T09:04:40.843Z,102802.31
2022-11-12T09:06:42.416Z,102791.44
2022-11-12T09:08:44.053Z,102791.16
2022-11-12T09:10:47.360Z,102777.03
2022-11-12T09:12:51.023Z,102796.22
2022-11-12T09:14:56.084Z,102795.00
2022-11-12T09:16:57.825Z,102793.28
2022-11-12T09:18:59.359Z,102781.53
2022-11-12T09:21:03.606Z,102791.16
2022-11-12T09:23:06.903Z,102798.06
2022-11-12T09:25:09.022Z,102794.38
2022-11-12T09:27:11.949Z,102802.16
2022-11-12T09:29:13.505Z,102800.00
2022-11-12T09:31:15.011Z,102796.41
2022-11-12T09:33:18.013Z,102806.94
2022-11-12T09:35:19.559Z,102804.94
2022-11-12T09:37:21.171Z,102802.28
2022-11-12T09:39:22.819Z,102799.84
2022-11-12T09:41:29.695Z,102800.25
2022-11-12T09:43:37.228Z,102806.84
2022-11-12T09:45:39.856Z,102815.63
2022-11-12T09:47:46.984Z,102804.88
2022-11-12T09:49:55.249Z,102803.06
2022-11-12T09:52:03.036Z,102795.75
2022-11-12T09:54:06.990Z,102801.69
2022-11-12T09:56:13.424Z,102799.09
2022-11-12T09:58:17.001Z,102787.50
2022-11-12T10:00:21.631Z,102793.44
2022-11-12T10:02:31.888Z,102801.97
2022-11-12T10:04:46.248Z,102793.94
2022-11-12T10:06:57.070Z,102783.97
2022-11-12T10:09:05.023Z,102790.97
2022-11-12T10:11:32.014Z,102788.19
2022-11-12T10:13:45.955Z,102790.06
2022-11-12T10:16:00.876Z,102782.66
2022-11-12T10:18:09.124Z,102783.03
2022-11-12T10:20:18.258Z,102789.81
2022-11-12T10:22:33.086Z,102786.84
2022-11-12T10:24:36.541Z,102787.84
2022-11-12T10:26:39.360Z,102785.78
2022-11-12T10:28:46.567Z,102782.09
2022-11-12T10:30:48.140Z,102792.13
2022-11-12T10:32:52.971Z,102795.53
2022-11-12T10:34:54.519Z,102783.19
2022-11-12T10:37:01.375Z,102779.47
2022-11-12T10:39:03.184Z,102776.81
2022-11-12T10:41:19.179Z,102768.97
2022-11-12T10:43:22.842Z,102796.06
2022-11-12T10:45:24.624Z,102783.78
2022-11-12T10:47:30.138Z,102759.78
2022-11-12T10:49:33.200Z,102750.59
2022-11-12T10:51:37.227Z,102785.47
2022-11-12T10:53:40.103Z,102783.06
2022-11-12T10:55:59.150Z,102775.78
2022-11-12T10:58:15.191Z,102773.16
2022-11-12T11:00:21.058Z,102783.28
2022-11-12T11:02:22.747Z,102786.69
2022-11-12T11:04:30.560Z,102784.91
2022-11-12T11:06:33.441Z,102767.09
2022-11-12T11:08:39.132Z,102759.91
2022-11-12T11:10:41.056Z,102774.81
2022-11-12T11:12:42.599Z,102783.84
2022-11-12T11:14:44.196Z,102767.78
2022-11-12T11:16:49.994Z,102760.91
2022-11-12T11:18:59.914Z,102770.00
2022-11-12T11:21:31.923Z,102776.41
2022-11-12T11:23:40.525Z,102770.75
2022-11-12T11:25:43.229Z,102766.66
2022-11-12T11:27:56.997Z,102764.94
2022-11-12T11:30:07.905Z,102759.81
2022-11-12T11:32:18.907Z,102744.91
2022-11-12T11:34:32.611Z,102746.84
2022-11-12T11:36:44.633Z,102768.41
2022-11-12T11:38:57.395Z,102754.75
2022-11-12T11:41:10.960Z,102744.47
2022-11-12T11:43:40.074Z,102738.25
2022-11-12T11:45:56.312Z,102742.28
2022-11-12T11:48:05.715Z,102737.25
2022-11-12T11:50:27.969Z,102740.25
2022-11-12T11:52:49.071Z,102744.91
2022-11-12T11:55:14.136Z,102737.47
2022-11-12T11:57:21.399Z,102732.22
2022-11-12T11:59:33.489Z,102739.00
2022-11-12T12:01:49.964Z,102737.44
2022-11-12T12:04:17.352Z,102748.03
2022-11-12T12:06:23.845Z,102741.38
2022-11-12T12:08:37.523Z,102744.28
2022-11-12T12:11:07.636Z,102742.34
2022-11-12T12:13:21.323Z,102730.47
2022-11-12T12:15:56.012Z,102729.16
2022-11-12T12:18:05.422Z,102734.19
2022-11-12T12:20:19.733Z,102717.69
2022-11-12T12:22:29.646Z,102722.31
2022-11-12T12:24:37.473Z,102729.94
2022-11-12T12:26:45.818Z,102730.47
2022-11-12T12:28:53.830Z,102720.78
2022-11-12T12:31:01.006Z,102723.16
2022-11-12T12:33:17.201Z,102714.38
2022-11-12T12:35:25.023Z,102723.59
2022-11-12T12:37:35.475Z,102726.97
2022-11-12T12:39:48.174Z,102724.47
2022-11-12T12:41:58.380Z,102714.50
2022-11-12T12:44:04.015Z,102725.06
2022-11-12T12:46:06.587Z,102728.59
2022-11-12T12:48:14.605Z,102713.56
2022-11-12T12:50:20.437Z,102711.13
2022-11-12T12:52:22.097Z,102707.16
2022-11-12T12:54:55.810Z,102710.13
2022-11-12T12:56:58.989Z,102701.25
2022-11-12T12:59:01.386Z,102705.44
2022-11-12T13:01:05.910Z,102706.97
2022-11-12T13:03:11.222Z,102698.09
2022-11-12T13:05:24.508Z,102681.44
2022-11-12T13:07:41.852Z,102683.19
2022-11-12T13:09:43.560Z,102692.69
2022-11-12T13:11:50.683Z,102691.91
2022-11-12T13:13:56.642Z,102680.19
2022-11-12T13:15:59.844Z,102678.94
2022-11-12T13:18:01.425Z,102682.47
2022-11-12T13:20:35.437Z,102686.09
2022-11-12T13:22:57.847Z,102691.44
2022-11-12T13:25:04.377Z,102680.09
2022-11-12T13:27:05.995Z,102691.22
2022-11-12T13:29:24.764Z,102696.38
2022-11-12T13:31:28.574Z,102692.03
2022-11-12T13:33:33.504Z,102691.44
2022-11-12T13:35:36.159Z,102693.13
2022-11-12T13:37:43.762Z,102701.94
2022-11-12T13:39:45.807Z,102696.41
2022-11-12T13:41:56.491Z,102695.81
2022-11-12T13:43:58.153Z,102694.81
2022-11-12T13:46:32.713Z,102693.66
2022-11-12T13:48:38.881Z,102693.94
2022-11-12T13:50:41.563Z,102697.25
2022-11-12T13:52:43.445Z,102693.00
2022-11-12T13:54:45.130Z,102697.72
2022-11-12T13:56:46.763Z,102686.84
2022-11-12T13:58:48.386Z,102696.31
2022-11-12T14:00:54.692Z,102700.22
2022-11-12T14:03:01.132Z,102695.53
2022-11-12T14:05:03.474Z,102697.38
2022-11-12T14:07:25.563Z,102688.38
2022-11-12T14:09:50.089Z,102694.06
2022-11-12T14:12:05.938Z,102687.78
2022-11-12T14:14:19.156Z,102693.25
2022-11-12T14:16:41.454Z,102689.09
2022-11-12T14:18:59.802Z,102691.81
2022-11-12T14:21:06.036Z,102689.19
2022-11-12T14:23:12.228Z,102701.81
2022-11-12T14:25:17.933Z,102692.09
2022-11-12T14:27:34.742Z,102687.00
2022-11-12T14:29:41.089Z,102696.03
2022-11-12T14:31:45.587Z,102690.94
2022-11-12T14:33:48.548Z,102685.59
2022-11-12T14:35:52.040Z,102696.41
2022-11-12T14:37:55.492Z,102687.75
2022-11-12T14:39:57.078Z,102690.59
2022-11-12T14:41:59.901Z,102690.03
2022-11-12T14:44:13.029Z,102685.81
2022-11-12T14:46:24.355Z,102679.72
2022-11-12T14:48:26.390Z,102674.69
2022-11-12T14:50:37.399Z,102673.84
2022-11-12T14:52:45.960Z,102679.41
2022-11-12T14:54:50.226Z,102681.41
2022-11-12T14:56:52.674Z,102680.75
2022-11-12T14:58:55.940Z,102683.44
2022-11-12T15:00:57.563Z,102675.72
2022-11-12T15:03:00.813Z,102680.59
2022-11-12T15:05:12.404Z,102674.50
2022-11-12T15:07:27.165Z,102672.03
2022-11-12T15:09:36.311Z,102678.38
2022-11-12T15:11:44.640Z,102682.06
2022-11-12T15:13:47.896Z,102673.41
2022-11-12T15:15:52.063Z,102676.16
2022-11-12T15:17:57.567Z,102673.53
2022-11-12T15:20:04.864Z,102671.97
2022-11-12T15:22:06.513Z,102661.56
2022-11-12T15:24:21.726Z,102669.78
2022-11-12T15:26:26.452Z,102664.69
2022-11-12T15:28:28.194Z,102669.47
2022-11-12T15:30:31.032Z,102665.94
2022-11-12T15:32:34.191Z,102680.22
2022-11-12T15:34:46.641Z,102674.94
2022-11-12T15:36:48.219Z,102676.78
2022-11-12T15:38:52.417Z,102678.69
2022-11-12T15:40:57.730Z,102677.81
2022-11-12T15:43:01.246Z,102680.69
2022-11-12T15:45:09.310Z,102677.00
2022-11-12T15:47:18.841Z,102675.28
2022-11-12T15:49:20.423Z,102678.97
2022-11-12T15:51:21.967Z,102681.94
2022-11-12T15:53:23.660Z,102668.94
2022-11-12T15:55:25.275Z,102676.97
2022-11-12T15:57:32.121Z,102685.09
2022-11-12T15:59:34.137Z,102680.81
2022-11-12T16:01:35.655Z,102687.91
2022-11-12T16:03:37.188Z,102685.28
2022-11-12T16:05:38.892Z,102696.84
2022-11-12T16:07:41.890Z,102690.63
2022-11-12T16:09:43.596Z,102696.13
2022-11-12T16:11:45.765Z,102694.47
2022-11-12T16:13:48.645Z,102691.91
2022-11-12T16:15:51.322Z,102685.72
2022-11-12T16:17:53.936Z,102671.72
2022-11-12T16:19:55.502Z,102693.09
2022-11-12T16:21:57.125Z,102687.06
2022-11-12T16:23:58.744Z,102689.91
2022-11-12T16:26:02.265Z,102691.41
2022-11-12T16:28:04.570Z,102689.84
2022-11-12T16:30:14.647Z,102680.97
2022-11-12T16:32:16.219Z,102681.09
2022-11-12T16:34:17.797Z,102690.03
2022-11-12T16:36:19.443Z,102686.63
2022-11-12T16:38:21.065Z,102699.91
2022-11-12T16:40:24.653Z,102699.09
2022-11-12T16:42:26.324Z,102693.91
2022-11-12T16:44:27.994Z,102696.56
2022-11-12T16:46:36.045Z,102693.19
2022-11-12T16:48:37.685Z,102692.41
2022-11-12T16:50:39.368Z,102691.63
2022-11-12T16:52:40.898Z,102694.16
2022-11-12T16:54:42.432Z,102697.63
2022-11-12T16:56:45.290Z,102696.63
2022-11-12T16:58:47.443Z,102690.41
2022-11-12T17:00:49.271Z,102697.44
2022-11-12T17:02:53.578Z,102688.59
2022-11-12T17:04:55.238Z,102692.03
2022-11-12T17:06:56.904Z,102691.81
2022-11-12T17:08:58.573Z,102691.22
2022-11-12T17:11:06.330Z,102693.91
2022-11-12T17:13:08.885Z,102690.47
2022-11-12T17:15:10.538Z,102690.63
2022-11-12T17:17:12.079Z,102685.31
2022-11-12T17:19:14.998Z,102682.84
2022-11-12T17:21:18.088Z,102680.34
2022-11-12T17:23:19.623Z,102689.22
2022-11-12T17:25:21.245Z,102684.09
2022-11-12T17:27:22.774Z,102679.75
2022-11-12T17:29:24.320Z,102675.31
2022-11-12T17:31:26.331Z,102673.38
2022-11-12T17:33:28.144Z,102680.47
2022-11-12T17:35:33.002Z,102675.38
2022-11-12T17:37:34.588Z,102678.31
2022-11-12T17:39:36.375Z,102683.69
2022-11-12T17:41:38.199Z,102681.22
2022-11-12T17:43:40.679Z,102672.38
2022-11-12T17:45:49.259Z,102679.41
2022-11-12T17:47:50.819Z,102684.44
2022-11-12T17:49:52.362Z,102682.81
2022-11-12T17:51:55.251Z,102684.59
2022-11-12T17:53:56.758Z,102674.03
2022-11-12T17:55:59.006Z,102673.13
2022-11-12T17:58:00.629Z,102686.53
2022-11-12T18:00:02.364Z,102684.00
2022-11-12T18:02:03.982Z,102684.22
2022-11-12T18:04:05.595Z,102686.75
2022-11-12T18:06:09.958Z,102692.06
2022-11-12T18:08:13.633Z,102690.09
2022-11-12T18:10:19.401Z,102684.88
2022-11-12T18:12:21.281Z,102682.03
2022-11-12T18:14:22.939Z,102670.69
2022-11-12T18:16:26.260Z,102660.31
2022-11-12T18:18:27.837Z,102685.97
2022-11-12T18:20:29.430Z,102687.75
2022-11-12T18:22:31.238Z,102688.56
2022-11-12T18:24:34.140Z,102684.22
2022-11-12T18:26:35.784Z,102686.91
2022-11-12T18:28:37.349Z,102690.34
2022-11-12T18:30:39.014Z,102670.97
2022-11-12T18:32:40.699Z,102694.91
2022-11-12T18:34:42.293Z,102688.59
2022-11-12T18:36:43.899Z,102685.25
2022-11-12T18:38:45.815Z,102681.75
2022-11-12T18:40:48.775Z,102683.50
2022-11-12T18:42:50.332Z,102681.78
2022-11-12T18:44:51.962Z,102683.41
2022-11-12T18:46:53.509Z,102683.34
2022-11-12T18:48:55.105Z,102683.41
2022-11-12T18:50:58.007Z,102688.66
2022-11-12T18:52:59.611Z,102686.88
2022-11-12T18:55:01.169Z,102688.56
2022-11-12T18:57:04.343Z,102688.59
2022-11-12T18:59:06.411Z,102693.25
2022-11-12T19:01:10.305Z,102692.41
2022-11-12T19:03:11.967Z,102685.47
2022-11-12T19:05:13.656Z,102681.97
2022-11-12T19:07:15.231Z,102687.88
2022-11-12T19:09:17.073Z,102683.56
2022-11-12T19:11:19.448Z,102692.59
2022-11-12T19:13:22.347Z,102688.28
2022-11-12T19:15:26.760Z,102683.94
2022-11-12T19:17:31.201Z,102690.94
2022-11-12T19:19:32.851Z,102689.03
2022-11-12T19:21:34.222Z,102689.84
2022-11-12T19:23:35.930Z,102692.50
2022-11-12T19:25:37.505Z,102687.22
2022-11-12T19:27:39.099Z,102694.34
2022-11-12T19:29:42.279Z,102697.91
2022-11-12T19:31:43.823Z,102695.25
2022-11-12T19:33:46.285Z,102692.72
2022-11-12T19:35:47.860Z,102693.59
2022-11-12T19:37:49.390Z,102700.59
2022-11-12T19:39:50.918Z,102697.00
2022-11-12T19:41:52.568Z,102695.41
2022-11-12T19:43:54.570Z,102699.81
2022-11-12T19:45:57.518Z,102689.06
2022-11-12T19:47:59.072Z,102694.47
2022-11-12T19:50:00.613Z,102699.75
2022-11-12T19:52:02.249Z,102698.09
2022-11-12T19:54:04.328Z,102697.13
2022-11-12T19:56:07.248Z,102697.31
2022-11-12T19:58:09.007Z,102700.81
2022-11-12T20:00:12.170Z,102694.75
2022-11-12T20:02:15.069Z,102693.94
2022-11-12T20:04:20.180Z,102696.47
2022-11-12T20:06:26.176Z,102695.63
2022-11-12T20:08:28.078Z,102692.13
2022-11-12T20:10:30.139Z,102687.97
2022-11-12T20:12:31.674Z,102686.03
2022-11-12T20:14:33.239Z,102687.81
2022-11-12T20:16:34.844Z,102696.59
2022-11-12T20:18:37.760Z,102698.41
2022-11-12T20:20:39.317Z,102696.34
2022-11-12T20:22:40.962Z,102706.16
2022-11-12T20:24:42.646Z,102704.41
2022-11-12T20:26:44.310Z,102696.44
2022-11-12T20:28:46.017Z,102698.28
2022-11-12T20:30:47.578Z,102701.81
2022-11-12T20:32:49.158Z,102704.56
2022-11-12T20:34:52.245Z,102703.81
2022-11-12T20:36:54.336Z,102702.13
2022-11-12T20:38:56.088Z,102686.38
2022-11-12T20:40:59.376Z,102699.44
2022-11-12T20:43:01.545Z,102686.94
2022-11-12T20:45:03.471Z,102640.38
2022-11-12T20:47:05.465Z,102698.53
2022-11-12T20:49:07.145Z,102706.53
2022-11-12T20:51:28.128Z,102649.53
2022-11-12T20:53:31.383Z,102698.75
2022-11-12T20:55:33.069Z,102690.81
2022-11-12T20:57:34.885Z,102696.06
2022-11-12T20:59:36.665Z,102673.97
2022-11-12T21:01:38.784Z,102684.59
2022-11-12T21:03:41.595Z,102688.09
2022-11-12T21:05:43.485Z,102677.56
2022-11-12T21:07:46.471Z,102692.41
2022-11-12T21:09:48.113Z,102681.94
2022-11-12T21:11:50.066Z,102676.81
2022-11-12T21:13:51.611Z,102683.78
2022-11-12T21:15:54.140Z,102689.16
2022-11-12T21:17:55.746Z,102680.28
2022-11-12T21:19:57.378Z,102682.00
2022-11-12T21:21:59.070Z,102672.31
2022-11-12T21:24:05.057Z,102683.78
2022-11-12T21:26:10.001Z,102676.72
2022-11-12T21:28:11.558Z,102667.00
2022-11-12T21:30:13.135Z,102678.44
2022-11-12T21:32:14.714Z,102670.59
2022-11-12T21:34:16.257Z,102674.03
2022-11-12T21:36:18.348Z,102679.34
2022-11-12T21:38:20.014Z,102662.50
2022-11-12T21:40:25.881Z,102667.88
2022-11-12T21:42:28.081Z,102674.88
2022-11-12T21:44:29.650Z,102671.38
2022-11-12T21:46:32.232Z,102653.00
2022-11-12T21:48:34.513Z,102670.38
2022-11-12T21:50:36.258Z,102667.63
2022-11-12T21:52:37.872Z,102668.63
2022-11-12T21:54:42.813Z,102667.81
2022-11-12T21:56:45.799Z,102666.03
2022-11-12T21:58:47.470Z,102665.31
2022-11-12T22:00:49.129Z,102660.00
2022-11-12T22:02:54.439Z,102656.47
2022-11-12T22:04:56.024Z,102662.59
2022-11-12T22:06:57.760Z,102666.94
2022-11-12T22:08:59.503Z,102663.41
2022-11-12T22:11:01.996Z,102661.59
2022-11-12T22:13:25.954Z,102656.28
2022-11-12T22:15:26.834Z,102646.59
2022-11-12T22:17:28.649Z,102651.88
2022-11-12T22:19:30.245Z,102655.41
2022-11-12T22:21:39.503Z,102643.91
2022-11-12T22:23:41.848Z,102652.72
2022-11-12T22:25:43.859Z,102633.31
2022-11-12T22:27:45.617Z,102643.78
2022-11-12T22:29:48.528Z,102640.19
2022-11-12T22:31:50.132Z,102639.13
2022-11-12T22:33:51.687Z,102645.44
2022-11-12T22:35:53.425Z,102634.72
2022-11-12T22:37:55.039Z,102636.44
2022-11-12T22:39:56.636Z,102630.31
2022-11-12T22:41:58.337Z,102624.66
2022-11-12T22:44:01.626Z,102631.06
2022-11-12T22:46:06.151Z,102624.88
2022-11-12T22:48:07.718Z,102626.44
2022-11-12T22:50:10.150Z,102618.50
2022-11-12T22:52:11.785Z,102621.22
2022-11-12T22:54:13.384Z,102623.91
2022-11-12T22:56:16.301Z,102621.22
2022-11-12T22:58:17.867Z,102618.66
2022-11-12T23:00:28.739Z,102616.84
2022-11-12T23:02:31.764Z,102618.41
2022-11-12T23:04:33.503Z,102626.31
2022-11-12T23:06:35.263Z,102611.28
2022-11-12T23:08:37.292Z,102620.34
2022-11-12T23:10:44.475Z,102618.56
2022-11-12T23:12:47.225Z,102622.00
2022-11-12T23:14:48.808Z,102620.22
2022-11-12T23:16:50.369Z,102597.16
2022-11-12T23:18:53.541Z,102613.66
2022-11-12T23:21:01.664Z,102609.88
2022-11-12T23:23:03.505Z,102607.28
2022-11-12T23:25:06.359Z,102608.13
2022-11-12T23:27:07.933Z,102601.81
2022-11-12T23:29:10.867Z,102600.22
2022-11-12T23:31:14.290Z,102606.50
2022-11-12T23:33:15.919Z,102601.00
2022-11-12T23:35:18.899Z,102588.53
2022-11-12T23:37:20.428Z,102600.06